Zaneta, Iowa
Current Conditions -  °F | °C
As of 5:54 AM on Friday 24 Oct 2014 (Local Time) from KALO Reporting Station
Moderate Fog Moderate Fog  
Wind Chill: 47°   Ceiling: 200
Heat Index: 47°   Visibility: 0.25mi
Dew Point: 47°   Wind: 3mph
Humidity: 100%   Direction: 150°SSE
Pressure: 29.99"   Gusts: NA
Location:  42.351°N, 92.4663°W
Report Text: KALO 241054Z AUTO 15003KT 1/4SM R12/1200V1400FT FG VV002 08/08 A2999 RMK AO2 SLP160 T00830083 $
Loading
Personal Weather Stations






























Interactive Weather Map
Tropical Storm Tracking
New forecast layout! Learn more

10-Day Weather Forecast

Advertisements
Track Severe Weather on mobile